createdAt,value
2022-12-01T00:00:17.516Z,101807.64
2022-12-01T00:02:48.445Z,101803.39
2022-12-01T00:05:20.181Z,101808.48
2022-12-01T00:07:52.256Z,101810.13
2022-12-01T00:10:29.051Z,101809.15
2022-12-01T00:13:02.196Z,101812.84
2022-12-01T00:15:35.735Z,101813.80
2022-12-01T00:18:07.442Z,101814.45
2022-12-01T00:20:38.298Z,101813.60
2022-12-01T00:23:09.853Z,101814.80
2022-12-01T00:25:40.642Z,101820.67
2022-12-01T00:28:11.422Z,101818.77
2022-12-01T00:30:42.197Z,101820.18
2022-12-01T00:33:13.023Z,101815.91
2022-12-01T00:35:44.061Z,101816.52
2022-12-01T00:38:14.972Z,101811.02
2022-12-01T00:40:46.342Z,101811.11
2022-12-01T00:43:17.129Z,101810.10
2022-12-01T00:45:48.111Z,101806.67
2022-12-01T00:48:18.988Z,101810.43
2022-12-01T00:50:50.400Z,101809.77
2022-12-01T00:53:21.484Z,101805.98
2022-12-01T00:55:54.135Z,101799.23
2022-12-01T00:58:26.137Z,101799.45
2022-12-01T01:01:01.825Z,101799.28
2022-12-01T01:03:34.362Z,101796.41
2022-12-01T01:06:10.114Z,101793.64
2022-12-01T01:08:41.930Z,101790.83
2022-12-01T01:11:12.757Z,101793.92
2022-12-01T01:13:43.505Z,101791.50
2022-12-01T01:16:18.000Z,101783.80
2022-12-01T01:18:51.452Z,101782.70
2022-12-01T01:21:23.567Z,101786.48
2022-12-01T01:23:55.517Z,101787.21
2022-12-01T01:26:28.816Z,101785.91
2022-12-01T01:29:01.725Z,101785.80
2022-12-01T01:31:33.865Z,101783.04
2022-12-01T01:34:05.067Z,101780.08
2022-12-01T01:36:36.026Z,101782.91
2022-12-01T01:39:07.019Z,101783.98
2022-12-01T01:41:37.803Z,101784.80
2022-12-01T01:44:39.302Z,101785.11
2022-12-01T01:47:10.666Z,101788.83
2022-12-01T01:49:42.443Z,101788.27
2022-12-01T01:52:13.359Z,101790.69
2022-12-01T01:54:49.191Z,101791.86
2022-12-01T01:57:28.018Z,101787.20
2022-12-01T02:00:03.645Z,101788.16
2022-12-01T02:02:45.470Z,101786.04
2022-12-01T02:05:22.071Z,101787.23
2022-12-01T02:07:54.607Z,101788.58
2022-12-01T02:10:33.911Z,101789.43
2022-12-01T02:13:17.137Z,101790.77
2022-12-01T02:15:57.126Z,101792.27
2022-12-01T02:18:34.750Z,101792.91
2022-12-01T02:21:35.347Z,101789.91
2022-12-01T02:24:50.854Z,101785.55
2022-12-01T02:27:38.426Z,101781.31
2022-12-01T02:30:14.133Z,101781.83
2022-12-01T02:32:57.023Z,101780.95
2022-12-01T02:35:37.848Z,101779.16
2022-12-01T02:38:19.580Z,101780.18
2022-12-01T02:40:58.467Z,101783.13
2022-12-01T02:43:34.046Z,101779.51
2022-12-01T02:46:11.451Z,101775.87
2022-12-01T02:48:44.497Z,101772.73
2022-12-01T02:51:19.321Z,101773.14
2022-12-01T02:53:50.650Z,101774.73
2022-12-01T02:56:24.530Z,101778.39
2022-12-01T02:58:55.533Z,101777.73
2022-12-01T03:01:43.279Z,101770.02
2022-12-01T03:04:34.552Z,101772.48
2022-12-01T03:07:15.601Z,101771.86
2022-12-01T03:09:56.302Z,101771.77
2022-12-01T03:12:36.280Z,101773.45
2022-12-01T03:15:11.731Z,101767.84
2022-12-01T03:17:48.365Z,101763.55
2022-12-01T03:20:26.308Z,101766.70
2022-12-01T03:23:02.779Z,101769.44
2022-12-01T03:25:34.606Z,101768.18
2022-12-01T03:28:22.612Z,101765.73
2022-12-01T03:30:57.550Z,101762.52
2022-12-01T03:33:32.861Z,101761.88
2022-12-01T03:36:04.389Z,101765.27
2022-12-01T03:38:37.417Z,101764.73
2022-12-01T03:41:17.882Z,101762.02
2022-12-01T03:43:53.427Z,101761.33
2022-12-01T03:46:34.324Z,101761.70
2022-12-01T03:49:05.935Z,101761.03
2022-12-01T03:51:44.948Z,101760.46
2022-12-01T03:54:26.838Z,101762.42
2022-12-01T03:57:02.802Z,101759.02
2022-12-01T03:59:36.222Z,101757.98
2022-12-01T04:02:09.001Z,101758.98
2022-12-01T04:04:39.817Z,101755.66
2022-12-01T04:07:13.607Z,101760.55
2022-12-01T04:09:44.690Z,101764.39
2022-12-01T04:12:33.060Z,101765.56
2022-12-01T04:15:09.263Z,101762.17
2022-12-01T04:17:43.439Z,101758.34
2022-12-01T04:20:16.890Z,101762.02
2022-12-01T04:22:48.761Z,101759.38
2022-12-01T04:25:19.748Z,101754.84
2022-12-01T04:27:50.521Z,101751.98
2022-12-01T04:30:21.883Z,101753.94
2022-12-01T04:32:53.063Z,101754.74
2022-12-01T04:35:23.812Z,101757.71
2022-12-01T04:37:54.645Z,101754.52
2022-12-01T04:40:25.470Z,101757.40
2022-12-01T04:42:57.108Z,101756.69
2022-12-01T04:45:28.027Z,101756.71
2022-12-01T04:47:58.883Z,101762.20
2022-12-01T04:50:29.772Z,101767.98
2022-12-01T04:53:00.689Z,101765.98
2022-12-01T04:55:31.744Z,101765.19
2022-12-01T04:58:05.053Z,101766.90
2022-12-01T05:00:36.399Z,101769.09
2022-12-01T05:03:12.124Z,101772.95
2022-12-01T05:05:45.641Z,101775.23
2022-12-01T05:08:16.500Z,101776.81
2022-12-01T05:10:47.537Z,101776.69
2022-12-01T05:13:19.981Z,101774.33
2022-12-01T05:15:50.879Z,101775.31
2022-12-01T05:18:22.171Z,101770.05
2022-12-01T05:20:59.020Z,101771.25
2022-12-01T05:23:31.724Z,101772.93
2022-12-01T05:26:03.692Z,101768.64
2022-12-01T05:28:36.703Z,101769.76
2022-12-01T05:31:07.987Z,101771.04
2022-12-01T05:33:39.008Z,101773.52
2022-12-01T05:36:11.362Z,101771.33
2022-12-01T05:38:42.185Z,101771.47
2022-12-01T05:41:13.537Z,101774.81
2022-12-01T05:43:44.335Z,101771.89
2022-12-01T05:46:15.283Z,101774.12
2022-12-01T05:48:46.868Z,101773.60
2022-12-01T05:51:19.074Z,101773.19
2022-12-01T05:53:49.945Z,101775.61
2022-12-01T05:56:20.915Z,101774.00
2022-12-01T05:58:51.689Z,101780.08
2022-12-01T06:01:22.817Z,101782.36
2022-12-01T06:03:55.221Z,101783.54
2022-12-01T06:06:26.317Z,101781.27
2022-12-01T06:08:57.457Z,101781.54
2022-12-01T06:11:28.299Z,101781.80
2022-12-01T06:13:59.103Z,101780.23
2022-12-01T06:16:29.946Z,101780.41
2022-12-01T06:19:00.898Z,101779.98
2022-12-01T06:21:31.783Z,101782.27
2022-12-01T06:24:02.584Z,101777.29
2022-12-01T06:26:33.658Z,101772.77
2022-12-01T06:29:04.585Z,101769.98
2022-12-01T06:31:35.619Z,101770.26
2022-12-01T06:34:07.005Z,101774.13
2022-12-01T06:36:38.017Z,101773.80
2022-12-01T06:39:11.319Z,101773.64
2022-12-01T06:41:42.386Z,101770.64
2022-12-01T06:44:13.615Z,101772.61
2022-12-01T06:46:44.674Z,101771.73
2022-12-01T06:49:16.208Z,101775.69
2022-12-01T06:51:47.755Z,101772.31
2022-12-01T06:54:18.889Z,101772.02
2022-12-01T06:56:49.838Z,101769.91
2022-12-01T06:59:21.003Z,101772.97
2022-12-01T07:01:52.261Z,101772.40
2022-12-01T07:04:23.105Z,101775.70
2022-12-01T07:06:53.939Z,101773.17
2022-12-01T07:09:24.922Z,101771.91
2022-12-01T07:11:55.770Z,101774.70
2022-12-01T07:14:28.156Z,101772.52
2022-12-01T07:16:59.175Z,101771.42
2022-12-01T07:19:30.079Z,101772.02
2022-12-01T07:22:01.055Z,101770.48
2022-12-01T07:24:31.921Z,101771.77
2022-12-01T07:27:02.763Z,101771.58
2022-12-01T07:29:33.591Z,101773.30
2022-12-01T07:32:04.550Z,101772.08
2022-12-01T07:34:35.462Z,101772.33
2022-12-01T07:37:06.270Z,101774.48
2022-12-01T07:39:37.615Z,101773.80
2022-12-01T07:42:08.667Z,101774.82
2022-12-01T07:44:39.503Z,101777.17
2022-12-01T07:47:10.378Z,101776.70
2022-12-01T07:49:41.904Z,101773.63
2022-12-01T07:52:12.733Z,101775.20
2022-12-01T07:54:43.602Z,101774.29
2022-12-01T07:57:15.145Z,101777.63
2022-12-01T07:59:45.971Z,101780.23
2022-12-01T08:02:16.899Z,101778.98
2022-12-01T08:04:47.864Z,101782.53
2022-12-01T08:07:18.827Z,101781.19
2022-12-01T08:09:49.794Z,101780.98
2022-12-01T08:12:20.863Z,101774.98
2022-12-01T08:14:51.680Z,101774.19
2022-12-01T08:17:22.774Z,101775.02
2022-12-01T08:19:53.617Z,101771.48
2022-12-01T08:22:24.459Z,101773.05
2022-12-01T08:24:55.265Z,101774.58
2022-12-01T08:27:26.076Z,101776.89
2022-12-01T08:29:57.018Z,101774.88
2022-12-01T08:32:29.761Z,101775.23
2022-12-01T08:35:00.636Z,101775.02
2022-12-01T08:37:31.706Z,101778.41
2022-12-01T08:40:02.673Z,101781.02
2022-12-01T08:42:33.560Z,101781.21
2022-12-01T08:45:04.839Z,101786.02
2022-12-01T08:47:35.950Z,101789.79
2022-12-01T08:50:08.364Z,101787.42
2022-12-01T08:52:39.849Z,101784.54
2022-12-01T08:55:12.194Z,101788.84
2022-12-01T08:57:43.109Z,101792.91
2022-12-01T09:00:15.397Z,101792.02
2022-12-01T09:02:46.463Z,101791.27
2022-12-01T09:05:17.589Z,101794.73
2022-12-01T09:08:08.752Z,101798.14
2022-12-01T09:10:39.651Z,101796.05
2022-12-01T09:13:10.453Z,101795.56
2022-12-01T09:15:41.377Z,101792.16
2022-12-01T09:18:12.284Z,101796.52
2022-12-01T09:20:46.022Z,101798.09
2022-12-01T09:23:17.002Z,101793.66
2022-12-01T09:25:47.888Z,101792.20
2022-12-01T09:28:19.130Z,101788.52
2022-12-01T09:30:50.087Z,101789.98
2022-12-01T09:33:20.900Z,101785.66
2022-12-01T09:35:52.049Z,101783.52
2022-12-01T09:38:23.004Z,101786.39
2022-12-01T09:40:55.416Z,101783.58
2022-12-01T09:43:30.640Z,101784.38
2022-12-01T09:46:02.324Z,101783.16
2022-12-01T09:48:42.442Z,101778.75
2022-12-01T09:51:16.838Z,101779.60
2022-12-01T09:53:50.692Z,101779.94
2022-12-01T09:56:24.866Z,101777.35
2022-12-01T09:58:58.648Z,101777.60
2022-12-01T10:01:34.591Z,101776.82
2022-12-01T10:04:10.884Z,101773.75
2022-12-01T10:06:48.381Z,101770.52
2022-12-01T10:09:26.728Z,101768.58
2022-12-01T10:12:02.552Z,101765.47
2022-12-01T10:14:38.069Z,101767.46
2022-12-01T10:17:19.997Z,101768.67
2022-12-01T10:19:58.096Z,101767.76
2022-12-01T10:23:02.519Z,101769.05
2022-12-01T10:25:42.587Z,101765.31
2022-12-01T10:28:31.972Z,101763.21
2022-12-01T10:31:11.262Z,101762.06
2022-12-01T10:33:52.488Z,101756.95
2022-12-01T10:36:24.242Z,101754.16
2022-12-01T10:38:55.609Z,101748.96
2022-12-01T10:41:29.806Z,101746.31
2022-12-01T10:44:05.650Z,101743.68
2022-12-01T10:46:42.541Z,101742.86
2022-12-01T10:49:15.961Z,101748.34
2022-12-01T10:51:53.462Z,101739.51
2022-12-01T10:54:32.527Z,101736.02
2022-12-01T10:57:04.530Z,101734.49
2022-12-01T10:59:40.996Z,101734.20
2022-12-01T11:02:20.940Z,101732.91
2022-12-01T11:04:59.191Z,101729.13
2022-12-01T11:07:33.350Z,101731.90
2022-12-01T11:10:16.745Z,101730.96
2022-12-01T11:12:56.564Z,101729.52
2022-12-01T11:15:29.698Z,101722.52
2022-12-01T11:18:03.096Z,101723.17
2022-12-01T11:20:37.370Z,101719.02
2022-12-01T11:23:29.828Z,101721.41
2022-12-01T11:26:11.022Z,101722.79
2022-12-01T11:28:54.369Z,101718.96
2022-12-01T11:31:37.745Z,101718.38
2022-12-01T11:34:20.436Z,101721.35
2022-12-01T11:36:55.759Z,101718.38
2022-12-01T11:39:32.581Z,101717.14
2022-12-01T11:42:05.797Z,101718.48
2022-12-01T11:44:51.252Z,101716.15
2022-12-01T11:47:25.241Z,101720.14
2022-12-01T11:49:59.324Z,101719.30
2022-12-01T11:52:33.194Z,101720.33
2022-12-01T11:55:20.933Z,101720.91
2022-12-01T11:57:55.903Z,101722.84
2022-12-01T12:00:30.658Z,101720.66
2022-12-01T12:03:22.421Z,101721.11
2022-12-01T12:09:40.151Z,101713.20
2022-12-01T12:12:35.913Z,101710.40
2022-12-01T12:15:18.867Z,101709.65
2022-12-01T12:18:16.615Z,101709.77
2022-12-01T12:21:01.404Z,101710.90
2022-12-01T12:24:01.097Z,101709.55
2022-12-01T12:26:36.441Z,101708.65
2022-12-01T12:29:30.724Z,101706.83
2022-12-01T12:32:20.611Z,101707.60
2022-12-01T12:35:00.369Z,101707.41
2022-12-01T12:37:43.771Z,101708.46
2022-12-01T12:40:32.915Z,101708.73
2022-12-01T12:43:19.891Z,101708.67
2022-12-01T12:46:00.684Z,101702.02
2022-12-01T12:49:03.988Z,101706.04
2022-12-01T12:51:42.023Z,101704.77
2022-12-01T12:54:23.552Z,101704.75
2022-12-01T12:57:04.635Z,101705.06
2022-12-01T12:59:43.441Z,101705.48
2022-12-01T13:02:18.252Z,101705.96
2022-12-01T13:04:57.657Z,101701.17
2022-12-01T13:07:38.025Z,101702.36
2022-12-01T13:10:22.980Z,101701.25
2022-12-01T13:13:01.810Z,101707.11
2022-12-01T13:15:36.518Z,101703.85
2022-12-01T13:18:18.064Z,101702.83
2022-12-01T13:20:50.820Z,101702.70
2022-12-01T13:23:22.949Z,101702.52
2022-12-01T13:25:58.633Z,101700.07
2022-12-01T13:28:34.477Z,101699.45
2022-12-01T13:31:09.033Z,101700.00
2022-12-01T13:33:56.993Z,101692.64
2022-12-01T13:39:22.722Z,101692.28
2022-12-01T13:42:09.471Z,101692.41
2022-12-01T13:44:46.071Z,101692.32
2022-12-01T13:47:51.449Z,101690.92
2022-12-01T13:50:57.999Z,101691.10
2022-12-01T13:53:34.862Z,101688.73
2022-12-01T13:56:39.669Z,101689.08
2022-12-01T13:59:43.881Z,101687.54
2022-12-01T14:02:22.644Z,101693.32
2022-12-01T14:04:54.210Z,101695.91
2022-12-01T14:07:39.911Z,101698.56
2022-12-01T14:10:26.251Z,101698.02
2022-12-01T14:13:01.077Z,101700.14
2022-12-01T14:15:43.556Z,101700.93
2022-12-01T14:18:36.969Z,101707.64
2022-12-01T14:21:11.146Z,101705.79
2022-12-01T14:23:59.475Z,101706.99
2022-12-01T14:26:45.023Z,101707.38
2022-12-01T14:29:33.201Z,101704.55
2022-12-01T14:32:24.873Z,101705.49
2022-12-01T14:35:15.977Z,101709.52
2022-12-01T14:37:51.003Z,101705.16
2022-12-01T14:40:29.624Z,101706.14
2022-12-01T14:43:25.105Z,101703.13
2022-12-01T14:46:04.185Z,101705.47
2022-12-01T14:48:40.451Z,101708.40
2022-12-01T14:51:27.162Z,101703.08
2022-12-01T14:54:02.306Z,101700.69
2022-12-01T14:56:43.000Z,101696.88
2022-12-01T14:59:23.098Z,101695.45
2022-12-01T15:01:57.553Z,101699.36
2022-12-01T15:04:28.453Z,101700.84
2022-12-01T15:06:59.697Z,101703.00
2022-12-01T15:09:34.929Z,101700.89
2022-12-01T15:12:08.354Z,101697.75
2022-12-01T15:14:47.635Z,101695.48
2022-12-01T15:17:32.064Z,101695.38
2022-12-01T15:20:03.416Z,101692.36
2022-12-01T15:22:36.168Z,101699.54
2022-12-01T15:25:15.046Z,101693.28
2022-12-01T15:27:46.773Z,101695.02
2022-12-01T15:30:19.267Z,101692.55
2022-12-01T15:32:50.604Z,101693.85
2022-12-01T15:35:24.465Z,101695.44
2022-12-01T15:37:56.584Z,101690.63
2022-12-01T15:41:13.284Z,101694.53
2022-12-01T15:43:22.414Z,101695.46
2022-12-01T15:45:58.181Z,101694.57
2022-12-01T15:48:33.617Z,101698.73
2022-12-01T15:51:25.738Z,101701.58
2022-12-01T15:53:59.456Z,101703.59
2022-12-01T15:56:33.102Z,101706.68
2022-12-01T15:59:10.855Z,101705.75
2022-12-01T16:01:44.827Z,101709.16
2022-12-01T16:04:21.174Z,101711.96
2022-12-01T16:06:59.739Z,101712.67
2022-12-01T16:09:35.392Z,101714.66
2022-12-01T16:12:26.577Z,101717.60
2022-12-01T16:15:18.392Z,101723.39
2022-12-01T16:17:50.952Z,101726.05
2022-12-01T16:20:25.951Z,101721.66
2022-12-01T16:23:00.072Z,101720.45
2022-12-01T16:25:39.712Z,101716.40
2022-12-01T16:28:23.565Z,101718.86
2022-12-01T16:30:55.086Z,101726.83
2022-12-01T16:33:28.087Z,101724.37
2022-12-01T16:36:01.582Z,101725.37
2022-12-01T16:38:32.722Z,101726.39
2022-12-01T16:41:15.622Z,101731.06
2022-12-01T16:44:12.640Z,101732.09
2022-12-01T16:46:41.265Z,101729.60
2022-12-01T16:49:12.273Z,101727.58
2022-12-01T16:51:55.370Z,101728.69
2022-12-01T16:54:28.493Z,101728.34
2022-12-01T16:56:59.321Z,101729.14
2022-12-01T16:59:31.086Z,101726.45
2022-12-01T17:02:02.791Z,101726.09
2022-12-01T17:04:33.797Z,101723.58
2022-12-01T17:07:05.153Z,101725.06
2022-12-01T17:09:36.133Z,101721.48
2022-12-01T17:12:08.073Z,101718.77
2022-12-01T17:14:39.322Z,101718.13
2022-12-01T17:17:10.638Z,101723.91
2022-12-01T17:19:41.527Z,101721.43
2022-12-01T17:22:12.411Z,101719.84
2022-12-01T17:24:43.233Z,101720.67
2022-12-01T17:27:14.113Z,101718.33
2022-12-01T17:29:46.398Z,101715.30
2022-12-01T17:32:18.317Z,101717.98
2022-12-01T17:34:49.433Z,101715.79
2022-12-01T17:37:21.358Z,101712.29
2022-12-01T17:39:52.646Z,101715.12
2022-12-01T17:42:23.506Z,101720.38
2022-12-01T17:44:54.394Z,101724.08
2022-12-01T17:47:27.645Z,101720.61
2022-12-01T17:49:58.504Z,101725.86
2022-12-01T17:52:30.091Z,101730.02
2022-12-01T17:55:01.096Z,101730.36
2022-12-01T17:57:31.995Z,101721.14
2022-12-01T18:00:03.037Z,101723.46
2022-12-01T18:02:39.549Z,101724.98
2022-12-01T18:05:11.553Z,101725.54
2022-12-01T18:07:43.281Z,101726.45
2022-12-01T18:10:17.694Z,101720.24
2022-12-01T18:12:49.142Z,101720.86
2022-12-01T18:15:20.085Z,101720.75
2022-12-01T18:17:51.177Z,101715.40
2022-12-01T18:20:22.952Z,101709.13
2022-12-01T18:22:53.765Z,101707.84
2022-12-01T18:25:36.095Z,101710.27
2022-12-01T18:28:09.959Z,101714.70
2022-12-01T18:30:41.540Z,101712.41
2022-12-01T18:33:13.421Z,101714.33
2022-12-01T18:35:47.649Z,101711.50
2022-12-01T18:38:18.457Z,101711.65
2022-12-01T18:40:49.288Z,101710.85
2022-12-01T18:43:20.526Z,101715.53
2022-12-01T18:45:51.815Z,101721.42
2022-12-01T18:48:23.030Z,101724.86
2022-12-01T18:50:59.427Z,101724.54
2022-12-01T18:53:30.862Z,101722.84
2022-12-01T18:56:04.911Z,101721.33
2022-12-01T18:58:36.296Z,101716.07
2022-12-01T19:01:21.409Z,101716.59
2022-12-01T19:03:52.582Z,101716.64
2022-12-01T19:06:24.557Z,101719.86
2022-12-01T19:08:55.991Z,101718.98
2022-12-01T19:11:27.110Z,101718.23
2022-12-01T19:13:59.577Z,101724.45
2022-12-01T19:16:31.775Z,101721.95
2022-12-01T19:19:03.262Z,101718.42
2022-12-01T19:21:34.284Z,101719.23
2022-12-01T19:24:05.375Z,101721.03
2022-12-01T19:26:36.590Z,101722.23
2022-12-01T19:29:07.955Z,101724.09
2022-12-01T19:31:40.408Z,101723.85
2022-12-01T19:34:11.545Z,101724.20
2022-12-01T19:36:42.545Z,101723.41
2022-12-01T19:39:13.455Z,101722.44
2022-12-01T19:41:44.681Z,101718.89
2022-12-01T19:44:15.673Z,101719.02
2022-12-01T19:46:46.907Z,101720.70
2022-12-01T19:49:18.116Z,101720.99
2022-12-01T19:51:49.372Z,101721.04
2022-12-01T19:54:21.704Z,101718.58
2022-12-01T19:56:53.030Z,101718.15
2022-12-01T19:59:24.381Z,101719.38
2022-12-01T20:01:57.075Z,101721.20
2022-12-01T20:04:27.947Z,101712.34
2022-12-01T20:06:59.182Z,101710.66
2022-12-01T20:09:30.048Z,101711.36
2022-12-01T20:12:00.986Z,101714.21
2022-12-01T20:14:31.887Z,101711.70
2022-12-01T20:17:02.860Z,101708.79
2022-12-01T20:19:34.011Z,101711.81
2022-12-01T20:22:04.918Z,101715.95
2022-12-01T20:24:36.718Z,101713.40
2022-12-01T20:27:08.309Z,101712.40
2022-12-01T20:29:39.391Z,101714.66
2022-12-01T20:32:11.313Z,101719.95
2022-12-01T20:34:42.178Z,101719.59
2022-12-01T20:37:13.335Z,101717.20
2022-12-01T20:39:44.175Z,101719.38
2022-12-01T20:42:15.261Z,101719.77
2022-12-01T20:44:46.509Z,101714.66
2022-12-01T20:47:18.626Z,101718.27
2022-12-01T20:49:53.053Z,101717.58
2022-12-01T20:52:27.781Z,101718.16
2022-12-01T20:54:58.655Z,101714.69
2022-12-01T20:57:30.489Z,101716.89
2022-12-01T21:00:01.423Z,101719.08
2022-12-01T21:02:32.443Z,101711.95
2022-12-01T21:05:03.425Z,101713.77
2022-12-01T21:07:34.876Z,101715.63
2022-12-01T21:10:07.083Z,101712.95
2022-12-01T21:12:59.174Z,101710.30
2022-12-01T21:15:32.450Z,101713.09
2022-12-01T21:18:05.563Z,101708.05
2022-12-01T21:20:40.247Z,101710.11
2022-12-01T21:23:15.625Z,101717.73
2022-12-01T21:25:48.058Z,101713.95
2022-12-01T21:28:22.590Z,101712.61
2022-12-01T21:31:00.256Z,101715.30
2022-12-01T21:33:35.083Z,101716.17
2022-12-01T21:36:14.860Z,101710.38
2022-12-01T21:38:46.620Z,101707.14
2022-12-01T21:41:24.867Z,101707.67
2022-12-01T21:43:57.430Z,101708.23
2022-12-01T21:46:29.501Z,101710.75
2022-12-01T21:49:02.042Z,101704.57
2022-12-01T21:51:32.901Z,101704.25
2022-12-01T21:54:04.901Z,101707.21
2022-12-01T21:56:36.150Z,101708.67
2022-12-01T21:59:18.672Z,101701.66
2022-12-01T22:01:53.269Z,101699.68
2022-12-01T22:04:31.346Z,101700.17
2022-12-01T22:07:03.540Z,101703.74
2022-12-01T22:09:36.984Z,101703.46
2022-12-01T22:12:21.546Z,101702.14
2022-12-01T22:14:54.418Z,101703.48
2022-12-01T22:17:25.275Z,101699.15
2022-12-01T22:20:00.945Z,101700.98
2022-12-01T22:22:32.845Z,101700.59
2022-12-01T22:25:19.677Z,101703.68
2022-12-01T22:27:50.513Z,101703.27
2022-12-01T22:30:24.020Z,101697.41
2022-12-01T22:33:00.287Z,101693.55
2022-12-01T22:35:35.155Z,101693.09
2022-12-01T22:38:36.112Z,101689.55
2022-12-01T22:41:12.157Z,101689.80
2022-12-01T22:43:48.621Z,101689.02
2022-12-01T22:46:28.499Z,101687.86
2022-12-01T22:49:01.323Z,101691.63
2022-12-01T22:51:49.840Z,101687.11
2022-12-01T22:54:33.650Z,101686.11
2022-12-01T22:57:19.626Z,101686.84
2022-12-01T22:59:50.699Z,101690.58
2022-12-01T23:02:24.891Z,101681.89
2022-12-01T23:05:00.108Z,101683.67
2022-12-01T23:07:36.610Z,101681.04
2022-12-01T23:10:16.148Z,101680.39
2022-12-01T23:12:48.815Z,101678.02
2022-12-01T23:15:26.841Z,101670.85
2022-12-01T23:18:00.005Z,101667.15
2022-12-01T23:20:34.651Z,101669.49
2022-12-01T23:23:09.519Z,101674.42
2022-12-01T23:25:40.843Z,101673.77
2022-12-01T23:28:13.734Z,101672.63
2022-12-01T23:30:47.503Z,101671.72
2022-12-01T23:33:24.588Z,101674.53
2022-12-01T23:35:59.641Z,101676.13
2022-12-01T23:38:37.271Z,101677.34
2022-12-01T23:41:13.724Z,101670.02
2022-12-01T23:43:47.183Z,101675.52
2022-12-01T23:46:20.325Z,101670.64
2022-12-01T23:48:54.777Z,101669.49
2022-12-01T23:51:29.576Z,101670.19
2022-12-01T23:54:04.490Z,101668.49
2022-12-01T23:56:38.861Z,101668.98
2022-12-01T23:59:13.853Z,101663.55
